createdAt,value
2023-05-22T00:00:13.524Z,67.79
2023-05-22T00:03:03.790Z,67.58
2023-05-22T00:05:34.606Z,66.83
2023-05-22T00:08:03.085Z,66.86
2023-05-22T00:10:31.397Z,66.15
2023-05-22T00:12:59.718Z,67.43
2023-05-22T00:15:27.850Z,68.16
2023-05-22T00:17:56.062Z,68.55
2023-05-22T00:20:24.141Z,68.26
2023-05-22T00:22:52.500Z,67.51
2023-05-22T00:25:20.588Z,67.03
2023-05-22T00:27:49.067Z,67.06
2023-05-22T00:30:16.989Z,66.34
2023-05-22T00:32:45.517Z,66.88
2023-05-22T00:35:13.716Z,67.04
2023-05-22T00:37:41.818Z,68.12
2023-05-22T00:40:10.209Z,67.80
2023-05-22T00:42:38.165Z,68.05
2023-05-22T00:45:06.943Z,68.83
2023-05-22T00:47:35.073Z,68.79
2023-05-22T00:50:04.522Z,69.00
2023-05-22T00:52:33.108Z,69.66
2023-05-22T00:55:01.539Z,68.71
2023-05-22T00:57:30.581Z,66.26
2023-05-22T00:59:59.294Z,67.16
2023-05-22T01:02:28.453Z,67.74
2023-05-22T01:04:57.912Z,67.30
2023-05-22T01:07:26.069Z,67.68
2023-05-22T01:09:56.171Z,69.48
2023-05-22T01:12:50.408Z,69.09
2023-05-22T01:15:32.096Z,67.65
2023-05-22T01:18:06.913Z,68.40
2023-05-22T01:20:38.195Z,69.80
2023-05-22T01:23:16.304Z,71.04
2023-05-22T01:25:47.682Z,70.29
2023-05-22T01:28:21.349Z,69.85
2023-05-22T01:31:04.971Z,70.24
2023-05-22T01:33:36.512Z,71.29
2023-05-22T01:36:07.343Z,70.99
2023-05-22T01:38:36.324Z,72.29
2023-05-22T01:41:04.883Z,72.44
2023-05-22T01:43:32.840Z,72.04
2023-05-22T01:46:02.064Z,71.85
2023-05-22T01:48:30.158Z,72.18
2023-05-22T01:51:03.816Z,72.71
2023-05-22T01:53:42.406Z,72.96
2023-05-22T01:56:14.688Z,72.82
2023-05-22T01:58:52.935Z,73.00
2023-05-22T02:01:22.685Z,73.09
2023-05-22T02:03:56.640Z,72.63
2023-05-22T02:06:32.437Z,74.43
2023-05-22T02:09:02.931Z,75.27
2023-05-22T02:11:32.611Z,75.66
2023-05-22T02:14:02.011Z,76.25
2023-05-22T02:16:30.373Z,76.42
2023-05-22T02:19:06.496Z,75.43
2023-05-22T02:21:36.035Z,74.60
2023-05-22T02:24:05.707Z,75.43
2023-05-22T02:26:33.713Z,76.25
2023-05-22T02:29:01.899Z,76.01
2023-05-22T02:31:29.952Z,75.14
2023-05-22T02:33:58.231Z,74.76
2023-05-22T02:36:26.422Z,74.85
2023-05-22T02:38:55.742Z,75.49
2023-05-22T02:41:24.128Z,74.90
2023-05-22T02:43:52.221Z,75.02
2023-05-22T02:46:20.878Z,74.68
2023-05-22T02:48:49.313Z,74.65
2023-05-22T02:51:17.565Z,73.90
2023-05-22T02:53:45.592Z,73.92
2023-05-22T02:56:13.558Z,73.70
2023-05-22T02:58:41.961Z,74.25
2023-05-22T03:01:10.585Z,73.85
2023-05-22T03:03:38.752Z,74.21
2023-05-22T03:06:09.052Z,73.95
2023-05-22T03:08:41.724Z,72.57
2023-05-22T03:11:10.337Z,70.90
2023-05-22T03:13:38.588Z,69.20
2023-05-22T03:16:07.084Z,68.06
2023-05-22T03:18:36.484Z,67.66
2023-05-22T03:21:04.796Z,66.59
2023-05-22T03:23:32.931Z,65.20
2023-05-22T03:26:00.877Z,64.15
2023-05-22T03:28:30.750Z,62.84
2023-05-22T03:30:58.910Z,62.38
2023-05-22T03:33:29.152Z,61.05
2023-05-22T03:35:57.596Z,59.84
2023-05-22T03:38:26.423Z,58.12
2023-05-22T03:40:54.981Z,56.78
2023-05-22T03:43:23.040Z,57.08
2023-05-22T03:45:51.625Z,57.60
2023-05-22T03:48:20.355Z,57.65
2023-05-22T03:50:48.322Z,57.80
2023-05-22T03:53:16.402Z,58.29
2023-05-22T03:55:44.581Z,58.82
2023-05-22T03:58:12.587Z,59.05
2023-05-22T04:00:40.708Z,58.78
2023-05-22T04:03:13.375Z,60.32
2023-05-22T04:05:41.654Z,60.82
2023-05-22T04:08:11.666Z,61.14
2023-05-22T04:10:41.267Z,61.11
2023-05-22T04:13:09.549Z,58.45
2023-05-22T04:15:37.503Z,57.47
2023-05-22T04:18:05.941Z,57.50
2023-05-22T04:20:34.176Z,57.79
2023-05-22T04:23:02.235Z,57.71
2023-05-22T04:25:31.738Z,58.26
2023-05-22T04:28:02.379Z,57.96
2023-05-22T04:30:34.134Z,55.65
2023-05-22T04:33:06.439Z,51.29
2023-05-22T04:35:35.465Z,48.05
2023-05-22T04:38:06.840Z,46.47
2023-05-22T04:40:34.856Z,45.48
2023-05-22T04:43:03.663Z,45.02
2023-05-22T04:45:33.460Z,43.45
2023-05-22T04:48:02.840Z,41.46
2023-05-22T04:50:36.230Z,42.14
2023-05-22T04:53:06.023Z,40.99
2023-05-22T04:55:34.497Z,39.11
2023-05-22T04:58:02.980Z,39.56
2023-05-22T05:00:31.227Z,38.26
2023-05-22T05:03:00.717Z,38.09
2023-05-22T05:05:28.859Z,37.42
2023-05-22T05:07:57.044Z,37.83
2023-05-22T05:10:25.474Z,36.74
2023-05-22T05:12:54.368Z,34.68
2023-05-22T05:15:23.980Z,34.96
2023-05-22T05:17:52.221Z,34.67
2023-05-22T05:20:20.377Z,34.83
2023-05-22T05:22:48.624Z,34.89
2023-05-22T05:25:18.518Z,33.12
2023-05-22T05:27:46.745Z,33.64
2023-05-22T05:30:16.181Z,34.26
2023-05-22T05:33:10.664Z,32.09
2023-05-22T05:35:59.143Z,31.14
2023-05-22T05:38:27.488Z,30.03
2023-05-22T05:40:56.327Z,31.16
2023-05-22T05:43:25.659Z,30.21
2023-05-22T05:45:57.363Z,30.38
2023-05-22T05:48:25.679Z,29.19
2023-05-22T05:50:53.893Z,28.06
2023-05-22T05:53:22.585Z,27.52
2023-05-22T05:55:56.419Z,26.99
2023-05-22T05:58:24.543Z,25.62
2023-05-22T06:01:01.673Z,25.43
2023-05-22T06:03:29.963Z,26.78
2023-05-22T06:06:05.477Z,26.10
2023-05-22T06:08:56.522Z,26.09
2023-05-22T06:11:28.949Z,25.34
2023-05-22T06:13:57.217Z,24.59
2023-05-22T06:16:26.355Z,25.52
2023-05-22T06:18:54.498Z,24.80
2023-05-22T06:21:23.363Z,24.73
2023-05-22T06:23:51.807Z,24.66
2023-05-22T06:26:22.098Z,24.24
2023-05-22T06:28:51.910Z,24.86
2023-05-22T06:31:20.342Z,24.61
2023-05-22T06:33:49.511Z,24.90
2023-05-22T06:36:19.247Z,24.26
2023-05-22T06:38:49.672Z,24.02
2023-05-22T06:41:40.732Z,24.18
2023-05-22T06:44:09.598Z,24.18
2023-05-22T06:46:39.870Z,24.09
2023-05-22T06:49:08.420Z,24.51
2023-05-22T06:51:42.122Z,24.68
2023-05-22T06:54:12.552Z,24.24
2023-05-22T06:56:41.515Z,23.98
2023-05-22T06:59:14.274Z,23.96
2023-05-22T07:02:01.157Z,24.43
2023-05-22T07:04:54.925Z,23.93
2023-05-22T07:07:29.963Z,24.13
2023-05-22T07:09:58.462Z,23.36
2023-05-22T07:12:28.798Z,23.25
2023-05-22T07:14:57.929Z,23.24
2023-05-22T07:17:26.683Z,23.45
2023-05-22T07:19:56.141Z,22.76
2023-05-22T07:22:24.426Z,22.90
2023-05-22T07:24:52.556Z,22.31
2023-05-22T07:27:20.850Z,22.47
2023-05-22T07:29:49.803Z,22.95
2023-05-22T07:32:18.510Z,22.80
2023-05-22T07:34:47.096Z,22.83
2023-05-22T07:37:15.508Z,22.34
2023-05-22T07:39:46.699Z,23.01
2023-05-22T07:42:15.403Z,23.51
2023-05-22T07:44:49.329Z,23.74
2023-05-22T07:47:18.625Z,24.35
2023-05-22T07:49:46.984Z,24.34
2023-05-22T07:52:15.186Z,23.00
2023-05-22T07:54:45.252Z,24.11
2023-05-22T07:57:15.716Z,25.83
2023-05-22T07:59:44.272Z,24.64
2023-05-22T08:02:12.654Z,25.57
2023-05-22T08:04:41.366Z,26.04
2023-05-22T08:07:09.491Z,26.68
2023-05-22T08:09:37.695Z,26.49
2023-05-22T08:12:07.673Z,26.85
2023-05-22T08:14:35.986Z,27.08
2023-05-22T08:17:04.480Z,27.69
2023-05-22T08:19:33.271Z,28.14
2023-05-22T08:22:01.582Z,28.55
2023-05-22T08:24:30.673Z,28.32
2023-05-22T08:27:00.828Z,28.88
2023-05-22T08:29:29.340Z,28.67
2023-05-22T08:31:58.409Z,28.84
2023-05-22T08:34:26.674Z,28.70
2023-05-22T08:36:54.699Z,27.46
2023-05-22T08:39:22.813Z,27.57
2023-05-22T08:41:51.090Z,27.03
2023-05-22T08:44:20.234Z,26.48
2023-05-22T08:46:49.625Z,26.55
2023-05-22T08:49:18.735Z,25.51
2023-05-22T08:51:48.622Z,24.85
2023-05-22T08:54:19.743Z,25.43
2023-05-22T08:56:56.729Z,24.98
2023-05-22T08:59:25.636Z,24.98
2023-05-22T09:01:54.089Z,25.66
2023-05-22T09:04:24.333Z,25.70
2023-05-22T09:06:53.261Z,25.06
2023-05-22T09:09:21.317Z,25.61
2023-05-22T09:11:49.669Z,26.26
2023-05-22T09:14:18.878Z,26.60
2023-05-22T09:16:47.625Z,27.25
2023-05-22T09:19:16.256Z,27.03
2023-05-22T09:21:44.712Z,26.33
2023-05-22T09:24:12.856Z,26.19
2023-05-22T09:26:41.335Z,26.67
2023-05-22T09:29:09.742Z,26.45
2023-05-22T09:31:44.809Z,26.18
2023-05-22T09:34:17.863Z,25.94
2023-05-22T09:36:46.493Z,26.31
2023-05-22T09:39:14.677Z,26.89
2023-05-22T09:41:44.433Z,27.59
2023-05-22T09:44:14.133Z,27.03
2023-05-22T09:46:44.297Z,26.82
2023-05-22T09:49:15.758Z,26.17
2023-05-22T09:51:48.084Z,27.26
2023-05-22T09:54:17.598Z,27.47
2023-05-22T09:56:48.844Z,27.95
2023-05-22T09:59:20.910Z,28.18
2023-05-22T10:01:50.375Z,27.18
2023-05-22T10:04:18.685Z,26.65
2023-05-22T10:06:50.568Z,25.93
2023-05-22T10:09:20.258Z,27.60
2023-05-22T10:11:50.376Z,26.65
2023-05-22T10:14:18.621Z,26.43
2023-05-22T10:16:47.099Z,26.72
2023-05-22T10:19:15.497Z,26.13
2023-05-22T10:21:43.794Z,26.54
2023-05-22T10:24:12.491Z,28.09
2023-05-22T10:26:41.019Z,27.91
2023-05-22T10:29:13.026Z,27.96
2023-05-22T10:31:59.527Z,28.46
2023-05-22T10:34:47.669Z,27.27
2023-05-22T10:37:26.466Z,27.65
2023-05-22T10:39:54.415Z,28.21
2023-05-22T10:42:22.531Z,27.76
2023-05-22T10:44:50.985Z,27.35
2023-05-22T10:47:20.034Z,27.32
2023-05-22T10:49:49.829Z,27.19
2023-05-22T10:52:21.986Z,26.21
2023-05-22T10:54:54.550Z,26.54
2023-05-22T10:57:24.401Z,26.65
2023-05-22T11:00:06.083Z,26.82
2023-05-22T11:02:38.366Z,25.61
2023-05-22T11:05:18.807Z,25.63
2023-05-22T11:07:47.489Z,25.48
2023-05-22T11:10:25.878Z,25.35
2023-05-22T11:13:11.233Z,24.37
2023-05-22T11:15:45.261Z,24.75
2023-05-22T11:18:14.741Z,25.25
2023-05-22T11:20:44.471Z,26.58
2023-05-22T11:23:12.587Z,25.32
2023-05-22T11:25:41.608Z,25.44
2023-05-22T11:28:11.568Z,25.85
2023-05-22T11:30:39.957Z,25.74
2023-05-22T11:33:08.353Z,25.33
2023-05-22T11:35:37.815Z,24.60
2023-05-22T11:38:07.347Z,25.43
2023-05-22T11:40:35.655Z,25.71
2023-05-22T11:43:04.806Z,25.43
2023-05-22T11:45:37.154Z,25.26
2023-05-22T11:48:05.301Z,26.74
2023-05-22T11:50:42.252Z,26.61
2023-05-22T11:53:11.134Z,26.35
2023-05-22T11:55:39.205Z,25.64
2023-05-22T11:58:07.184Z,25.77
2023-05-22T12:00:35.201Z,25.19
2023-05-22T12:03:04.269Z,25.34
2023-05-22T12:05:32.729Z,24.69
2023-05-22T12:08:01.093Z,24.70
2023-05-22T12:10:29.179Z,25.29
2023-05-22T12:12:57.156Z,25.57
2023-05-22T12:15:25.684Z,26.11
2023-05-22T12:17:57.092Z,25.88
2023-05-22T12:20:29.647Z,25.81
2023-05-22T12:22:59.020Z,26.07
2023-05-22T12:25:33.585Z,25.91
2023-05-22T12:28:01.785Z,26.79
2023-05-22T12:30:39.537Z,26.18
2023-05-22T12:33:12.725Z,25.59
2023-05-22T12:35:41.520Z,25.92
2023-05-22T12:38:11.007Z,26.17
2023-05-22T12:40:39.467Z,26.35
2023-05-22T12:43:08.236Z,25.71
2023-05-22T12:45:36.855Z,25.44
2023-05-22T12:48:04.929Z,25.65
2023-05-22T12:50:32.925Z,25.91
2023-05-22T12:53:03.790Z,26.04
2023-05-22T12:55:32.753Z,25.73
2023-05-22T12:58:01.097Z,24.74
2023-05-22T13:00:29.097Z,25.07
2023-05-22T13:02:57.501Z,25.62
2023-05-22T13:05:25.850Z,25.45
2023-05-22T13:07:54.142Z,26.12
2023-05-22T13:10:22.247Z,26.11
2023-05-22T13:12:51.695Z,25.70
2023-05-22T13:15:19.896Z,25.75
2023-05-22T13:17:47.867Z,25.87
2023-05-22T13:20:16.028Z,26.84
2023-05-22T13:22:44.357Z,26.59
2023-05-22T13:25:13.678Z,26.10
2023-05-22T13:27:41.908Z,26.02
2023-05-22T13:30:10.338Z,26.49
2023-05-22T13:32:38.758Z,26.54
2023-05-22T13:35:07.221Z,26.68
2023-05-22T13:37:35.247Z,26.46
2023-05-22T13:40:03.564Z,26.07
2023-05-22T13:42:31.659Z,25.67
2023-05-22T13:44:59.974Z,26.04
2023-05-22T13:47:28.159Z,26.62
2023-05-22T13:49:56.240Z,26.35
2023-05-22T13:52:24.217Z,26.55
2023-05-22T13:54:52.408Z,26.60
2023-05-22T13:57:20.385Z,26.78
2023-05-22T13:59:48.362Z,26.17
2023-05-22T14:02:16.361Z,26.02
2023-05-22T14:04:45.453Z,26.40
2023-05-22T14:07:15.781Z,26.28
2023-05-22T14:09:43.771Z,26.68
2023-05-22T14:12:11.927Z,26.54
2023-05-22T14:14:40.068Z,25.94
2023-05-22T14:17:09.106Z,25.94
2023-05-22T14:19:38.517Z,26.39
2023-05-22T14:22:06.808Z,26.77
2023-05-22T14:24:35.109Z,26.88
2023-05-22T14:27:03.180Z,27.64
2023-05-22T14:29:31.218Z,27.13
2023-05-22T14:32:04.311Z,27.45
2023-05-22T14:34:32.523Z,27.42
2023-05-22T14:37:00.470Z,27.56
2023-05-22T14:39:28.882Z,27.48
2023-05-22T14:41:56.956Z,27.50
2023-05-22T14:44:25.035Z,27.53
2023-05-22T14:46:53.718Z,28.28
2023-05-22T14:49:21.709Z,28.12
2023-05-22T14:51:49.721Z,27.85
2023-05-22T14:54:19.243Z,28.63
2023-05-22T14:56:47.445Z,28.22
2023-05-22T14:59:15.509Z,27.67
2023-05-22T15:01:43.676Z,27.90
2023-05-22T15:04:11.933Z,27.78
2023-05-22T15:06:40.084Z,28.21
2023-05-22T15:09:08.786Z,28.52
2023-05-22T15:11:37.125Z,28.21
2023-05-22T15:14:05.232Z,28.22
2023-05-22T15:16:33.418Z,27.81
2023-05-22T15:19:01.435Z,28.04
2023-05-22T15:21:29.723Z,28.15
2023-05-22T15:23:58.913Z,29.03
2023-05-22T15:26:26.926Z,28.68
2023-05-22T15:29:01.185Z,28.60
2023-05-22T15:31:30.315Z,27.95
2023-05-22T15:33:58.559Z,28.25
2023-05-22T15:36:27.173Z,27.08
2023-05-22T15:38:55.762Z,27.34
2023-05-22T15:41:23.757Z,27.05
2023-05-22T15:43:54.996Z,26.44
2023-05-22T15:46:23.001Z,26.28
2023-05-22T15:48:51.341Z,27.14
2023-05-22T15:51:19.307Z,26.67
2023-05-22T15:53:47.277Z,26.02
2023-05-22T15:56:15.331Z,27.35
2023-05-22T15:58:43.402Z,27.76
2023-05-22T16:01:12.405Z,27.94
2023-05-22T16:03:40.581Z,27.45
2023-05-22T16:06:08.657Z,27.52
2023-05-22T16:08:37.030Z,27.79
2023-05-22T16:11:05.089Z,28.21
2023-05-22T16:13:33.339Z,28.43
2023-05-22T16:16:03.494Z,28.74
2023-05-22T16:18:31.975Z,29.03
2023-05-22T16:20:59.899Z,28.71
2023-05-22T16:23:27.936Z,28.64
2023-05-22T16:25:56.077Z,28.89
2023-05-22T16:28:24.024Z,30.39
2023-05-22T16:30:52.144Z,31.21
2023-05-22T16:33:20.268Z,31.16
2023-05-22T16:35:48.360Z,31.87
2023-05-22T16:38:16.528Z,33.06
2023-05-22T16:40:44.450Z,34.67
2023-05-22T16:43:13.913Z,34.10
2023-05-22T16:45:46.757Z,34.39
2023-05-22T16:48:14.968Z,34.15
2023-05-22T16:50:44.226Z,33.89
2023-05-22T16:53:12.798Z,34.95
2023-05-22T16:55:41.209Z,36.79
2023-05-22T16:58:11.730Z,37.04
2023-05-22T17:00:40.443Z,38.01
2023-05-22T17:03:09.288Z,37.32
2023-05-22T17:05:38.411Z,37.43
2023-05-22T17:08:07.084Z,36.27
2023-05-22T17:10:35.558Z,37.00
2023-05-22T17:13:03.817Z,36.82
2023-05-22T17:15:31.862Z,35.78
2023-05-22T17:17:59.916Z,34.64
2023-05-22T17:20:29.509Z,33.81
2023-05-22T17:22:57.904Z,33.14
2023-05-22T17:25:26.019Z,33.18
2023-05-22T17:27:53.959Z,34.01
2023-05-22T17:30:21.922Z,34.05
2023-05-22T17:32:53.519Z,34.22
2023-05-22T17:35:21.725Z,34.86
2023-05-22T17:37:49.856Z,35.02
2023-05-22T17:40:18.642Z,35.76
2023-05-22T17:42:47.003Z,35.73
2023-05-22T17:45:15.532Z,37.74
2023-05-22T17:47:43.614Z,40.38
2023-05-22T17:50:12.661Z,41.98
2023-05-22T17:52:41.268Z,42.79
2023-05-22T17:55:09.605Z,42.68
2023-05-22T17:57:37.817Z,44.46
2023-05-22T18:00:09.676Z,44.38
2023-05-22T18:02:40.765Z,44.65
2023-05-22T18:05:09.464Z,44.93
2023-05-22T18:07:37.679Z,46.46
2023-05-22T18:10:06.203Z,47.44
2023-05-22T18:12:35.988Z,49.13
2023-05-22T18:15:08.609Z,50.64
2023-05-22T18:17:36.971Z,50.98
2023-05-22T18:20:08.521Z,49.49
2023-05-22T18:22:37.418Z,50.38
2023-05-22T18:25:06.714Z,49.79
2023-05-22T18:27:34.878Z,48.65
2023-05-22T18:30:03.633Z,46.69
2023-05-22T18:32:32.154Z,49.19
2023-05-22T18:35:02.542Z,52.65
2023-05-22T18:37:30.994Z,52.76
2023-05-22T18:39:59.038Z,52.43
2023-05-22T18:42:27.350Z,52.79
2023-05-22T18:44:55.763Z,54.44
2023-05-22T18:47:24.104Z,54.64
2023-05-22T18:49:52.481Z,54.85
2023-05-22T18:52:20.539Z,54.29
2023-05-22T18:54:48.689Z,54.56
2023-05-22T18:57:16.841Z,56.69
2023-05-22T18:59:46.194Z,57.38
2023-05-22T19:02:17.052Z,56.09
2023-05-22T19:04:45.683Z,57.55
2023-05-22T19:07:14.024Z,57.64
2023-05-22T19:09:42.306Z,57.85
2023-05-22T19:12:10.546Z,58.25
2023-05-22T19:14:38.804Z,57.55
2023-05-22T19:17:06.823Z,58.20
2023-05-22T19:19:34.871Z,59.25
2023-05-22T19:22:03.007Z,58.78
2023-05-22T19:24:31.300Z,58.91
2023-05-22T19:26:59.490Z,59.13
2023-05-22T19:29:27.458Z,59.23
2023-05-22T19:31:55.476Z,58.71
2023-05-22T19:34:23.420Z,57.86
2023-05-22T19:36:52.312Z,58.52
2023-05-22T19:39:20.235Z,59.71
2023-05-22T19:41:48.462Z,59.39
2023-05-22T19:44:17.244Z,60.19
2023-05-22T19:46:45.312Z,59.54
2023-05-22T19:49:13.646Z,59.22
2023-05-22T19:51:42.012Z,60.70
2023-05-22T19:54:10.022Z,61.20
2023-05-22T19:56:38.357Z,61.38
2023-05-22T19:59:06.312Z,61.99
2023-05-22T20:01:34.459Z,63.05
2023-05-22T20:04:02.834Z,63.46
2023-05-22T20:06:33.720Z,63.56
2023-05-22T20:09:02.047Z,64.23
2023-05-22T20:11:30.327Z,64.01
2023-05-22T20:13:58.651Z,63.95
2023-05-22T20:16:29.265Z,65.00
2023-05-22T20:18:57.654Z,65.40
2023-05-22T20:21:25.811Z,65.65
2023-05-22T20:23:55.646Z,65.09
2023-05-22T20:26:23.795Z,65.34
2023-05-22T20:28:52.226Z,65.71
2023-05-22T20:31:20.182Z,65.94
2023-05-22T20:33:48.623Z,66.50
2023-05-22T20:36:18.087Z,67.22
2023-05-22T20:38:46.329Z,67.05
2023-05-22T20:41:14.253Z,67.54
2023-05-22T20:43:43.584Z,68.38
2023-05-22T20:46:12.544Z,68.05
2023-05-22T20:48:46.883Z,67.11
2023-05-22T20:51:21.240Z,66.71
2023-05-22T20:53:53.626Z,66.56
2023-05-22T20:56:21.638Z,67.24
2023-05-22T20:58:49.618Z,67.82
2023-05-22T21:01:17.849Z,66.68
2023-05-22T21:03:45.952Z,66.56
2023-05-22T21:06:14.028Z,67.44
2023-05-22T21:08:42.153Z,68.02
2023-05-22T21:11:10.269Z,68.16
2023-05-22T21:13:38.445Z,68.64
2023-05-22T21:16:07.433Z,66.69
2023-05-22T21:18:35.499Z,67.49
2023-05-22T21:21:03.706Z,67.63
2023-05-22T21:23:31.676Z,67.05
2023-05-22T21:25:59.699Z,66.87
2023-05-22T21:28:28.002Z,67.46
2023-05-22T21:30:56.153Z,67.37
2023-05-22T21:33:24.343Z,67.51
2023-05-22T21:35:52.292Z,67.89
2023-05-22T21:38:20.658Z,69.43
2023-05-22T21:40:48.632Z,70.33
2023-05-22T21:43:16.834Z,69.49
2023-05-22T21:45:45.024Z,69.55
2023-05-22T21:48:13.092Z,69.52
2023-05-22T21:50:41.494Z,69.91
2023-05-22T21:53:09.835Z,69.83
2023-05-22T21:55:37.841Z,68.81
2023-05-22T21:58:05.810Z,69.56
2023-05-22T22:00:33.981Z,69.06
2023-05-22T22:03:02.017Z,69.27
2023-05-22T22:05:30.691Z,68.81
2023-05-22T22:07:58.659Z,68.92
2023-05-22T22:10:26.594Z,69.43
2023-05-22T22:12:54.723Z,67.14
2023-05-22T22:15:22.991Z,68.99
2023-05-22T22:17:52.418Z,70.16
2023-05-22T22:20:30.316Z,69.05
2023-05-22T22:23:07.843Z,69.08
2023-05-22T22:25:36.248Z,69.35
2023-05-22T22:28:04.226Z,69.69
2023-05-22T22:30:32.456Z,69.83
2023-05-22T22:33:00.975Z,69.89
2023-05-22T22:35:29.566Z,70.06
2023-05-22T22:37:57.646Z,70.66
2023-05-22T22:40:26.926Z,70.86
2023-05-22T22:42:55.425Z,70.96
2023-05-22T22:45:23.739Z,70.61
2023-05-22T22:47:53.196Z,70.82
2023-05-22T22:50:21.495Z,70.67
2023-05-22T22:52:49.621Z,71.12
2023-05-22T22:55:18.146Z,72.11
2023-05-22T22:57:50.230Z,71.18
2023-05-22T23:00:19.527Z,71.78
2023-05-22T23:02:47.682Z,71.60
2023-05-22T23:05:20.187Z,72.03
2023-05-22T23:07:48.766Z,72.43
2023-05-22T23:10:16.760Z,72.31
2023-05-22T23:12:44.756Z,71.81
2023-05-22T23:15:13.646Z,71.81
2023-05-22T23:17:42.194Z,71.48
2023-05-22T23:20:10.928Z,71.41
2023-05-22T23:22:38.864Z,71.33
2023-05-22T23:25:07.358Z,70.97
2023-05-22T23:27:36.529Z,70.87
2023-05-22T23:30:05.608Z,70.31
2023-05-22T23:32:33.767Z,70.41
2023-05-22T23:35:01.997Z,71.92
2023-05-22T23:37:29.920Z,72.56
2023-05-22T23:39:57.923Z,72.08
2023-05-22T23:42:25.954Z,71.90
2023-05-22T23:44:53.989Z,71.75
2023-05-22T23:47:22.004Z,71.80
2023-05-22T23:49:50.117Z,71.59
2023-05-22T23:52:18.254Z,71.31
2023-05-22T23:54:46.398Z,71.17
2023-05-22T23:57:14.413Z,70.52
2023-05-22T23:59:43.793Z,70.26
